Time;durP1;ratioP1;P1;durP2;ratioP2;P2;SDS_P1;SDS_P2;PMS_P1;PMS_P2;Temp;Humidity;BMP_temperature;BMP_pressure;BME280_temperature;BME280_humidity;BME280_pressure;Samples;Min_cycle;Max_cycle;Signal;HPM_P1;HPM_P2
2023/06/21 00:02:35;;;;;;;13.20;11.90;;;;;;;18.75;66.73;100130.02;131059;1251;107501;-75
2023/06/21 00:05:41;;;;;;;15.40;13.80;;;;;;;18.76;66.89;100130.52;130990;1257;108620;-75
2023/06/21 00:08:47;;;;;;;16.20;14.40;;;;;;;18.81;67.00;100129.25;131094;1256;105687;-75
2023/06/21 00:11:53;;;;;;;16.60;14.80;;;;;;;18.85;67.07;100125.41;130981;1256;107232;-75
2023/06/21 00:14:59;;;;;;;15.50;14.00;;;;;;;18.86;67.16;100126.12;131053;1256;106537;-75
2023/06/21 00:18:05;;;;;;;16.80;15.20;;;;;;;18.90;67.30;100122.00;131141;1255;107670;-75
2023/06/21 00:21:10;;;;;;;16.30;14.70;;;;;;;18.92;67.40;100115.92;131136;1256;107454;-75
2023/06/21 00:24:16;;;;;;;14.50;13.00;;;;;;;18.94;67.52;100118.24;131099;1256;107502;-76
2023/06/21 00:27:21;;;;;;;13.70;12.40;;;;;;;18.94;67.55;100119.25;130868;1256;107637;-75
2023/06/21 00:30:27;;;;;;;14.30;12.80;;;;;;;18.95;67.78;100123.23;130930;1255;107353;-75
2023/06/21 00:33:32;;;;;;;14.90;13.50;;;;;;;19.00;67.99;100120.27;130917;1256;106986;-75
2023/06/21 00:36:41;;;;;;;15.40;13.80;;;;;;;19.05;67.99;100123.88;131031;1256;107453;-75
2023/06/21 00:39:47;;;;;;;14.80;13.30;;;;;;;19.09;68.11;100124.20;130915;1255;107514;-75
2023/06/21 00:42:53;;;;;;;15.30;13.80;;;;;;;19.11;68.20;100125.20;130970;1256;107532;-76
2023/06/21 00:45:58;;;;;;;15.70;14.10;;;;;;;19.13;68.36;100127.60;130954;1257;107284;-76
2023/06/21 00:49:04;;;;;;;15.10;13.60;;;;;;;19.15;68.42;100130.09;130836;1251;107485;-75
2023/06/21 00:52:10;;;;;;;13.70;12.10;;;;;;;19.12;68.57;100126.73;130870;1251;107375;-75
2023/06/21 00:55:19;;;;;;;14.80;13.40;;;;;;;19.14;68.68;100130.04;130943;1257;107482;-76
2023/06/21 00:58:25;;;;;;;14.70;13.20;;;;;;;19.16;68.76;100127.16;130960;1251;106599;-76
2023/06/21 01:01:30;;;;;;;14.90;13.50;;;;;;;19.19;68.80;100126.20;130952;1256;107428;-76
2023/06/21 01:04:36;;;;;;;15.10;13.60;;;;;;;19.23;69.04;100131.44;130994;1257;107409;-78
2023/06/21 01:07:48;;;;;;;14.90;13.50;;;;;;;19.26;69.09;100133.09;131179;1256;107510;-76
2023/06/21 01:11:05;;;;;;;15.90;14.40;;;;;;;19.26;69.25;100128.40;131019;1251;109207;-75
2023/06/21 01:14:23;;;;;;;15.40;13.90;;;;;;;19.26;69.39;100123.73;130836;1256;107540;-75
2023/06/21 01:17:33;;;;;;;14.40;13.00;;;;;;;19.25;69.43;100123.12;130968;1256;107281;-76
2023/06/21 01:20:40;;;;;;;15.50;14.00;;;;;;;19.28;69.54;100130.17;130837;1256;107500;-76
2023/06/21 01:24:13;;;;;;;14.70;13.30;;;;;;;19.33;69.72;100128.45;130979;1253;107356;-76
2023/06/21 01:27:34;;;;;;;15.80;14.20;;;;;;;19.39;69.92;100126.14;130928;1256;107529;-75
2023/06/21 01:30:42;;;;;;;15.70;14.20;;;;;;;19.42;69.87;100120.22;130872;1256;106813;-76
2023/06/21 01:33:48;;;;;;;16.10;14.50;;;;;;;19.43;69.95;100125.12;130922;1256;107462;-76
2023/06/21 01:36:54;;;;;;;16.20;14.60;;;;;;;19.42;70.06;100127.38;130980;1256;107453;-76
2023/06/21 01:40:03;;;;;;;15.80;14.10;;;;;;;19.40;70.16;100134.34;130905;1256;107592;-76
2023/06/21 01:43:08;;;;;;;14.80;13.40;;;;;;;19.41;70.32;100136.20;130894;1256;107225;-76
2023/06/21 01:46:15;;;;;;;15.30;13.80;;;;;;;19.44;70.40;100140.32;130961;1256;107513;-76
2023/06/21 01:49:21;;;;;;;16.10;14.00;;;;;;;19.49;70.56;100142.17;131102;1254;107536;-76
2023/06/21 01:52:27;;;;;;;17.60;15.90;;;;;;;19.53;70.57;100140.45;131016;1254;107412;-75
2023/06/21 01:55:34;;;;;;;17.80;16.10;;;;;;;19.56;70.42;100141.72;130954;1256;107243;-76
2023/06/21 01:58:39;;;;;;;17.60;15.80;;;;;;;19.57;70.51;100142.39;130954;1253;107666;-75
2023/06/21 02:01:50;;;;;;;16.40;14.70;;;;;;;19.56;70.61;100142.94;130751;1251;107501;-76
2023/06/21 02:04:57;;;;;;;16.10;14.50;;;;;;;19.54;70.74;100139.86;130932;1251;107590;-76
2023/06/21 02:08:05;;;;;;;15.50;13.90;;;;;;;19.54;70.80;100134.44;130544;1256;140533;-75
2023/06/21 02:11:11;;;;;;;16.40;14.90;;;;;;;19.57;70.66;100137.11;130820;1256;107498;-75
2023/06/21 02:14:16;;;;;;;18.00;16.10;;;;;;;19.62;70.61;100135.98;130723;1257;107369;-75
2023/06/21 02:17:23;;;;;;;18.60;16.70;;;;;;;19.68;70.60;100134.41;130830;1258;107522;-75
2023/06/21 02:20:29;;;;;;;18.00;16.20;;;;;;;19.72;70.50;100134.84;130745;1256;107537;-75
2023/06/21 02:23:35;;;;;;;18.40;16.60;;;;;;;19.74;70.53;100134.88;130888;1256;107547;-75
2023/06/21 02:26:41;;;;;;;17.50;15.80;;;;;;;19.75;70.72;100135.46;130885;1260;107339;-77
2023/06/21 02:29:50;;;;;;;18.40;16.70;;;;;;;19.73;70.82;100121.89;130814;1256;107393;-76
2023/06/21 02:32:56;;;;;;;16.90;15.30;;;;;;;19.68;70.87;100119.47;130863;1251;107508;-76
2023/06/21 02:36:01;;;;;;;16.30;14.60;;;;;;;19.68;70.82;100123.96;130971;1257;105938;-76
2023/06/21 02:39:07;;;;;;;17.60;15.70;;;;;;;19.71;70.87;100124.27;130942;1256;107537;-79
2023/06/21 02:42:13;;;;;;;17.20;15.50;;;;;;;19.76;70.89;100122.55;131081;1265;105495;-80
2023/06/21 02:45:19;;;;;;;18.20;16.30;;;;;;;19.84;70.89;100125.92;131225;1254;107262;-82
2023/06/21 02:48:26;;;;;;;19.30;16.80;;;;;;;19.87;70.73;100118.32;131582;1256;107532;-82
2023/06/21 02:51:32;;;;;;;19.70;17.70;;;;;;;19.92;70.77;100123.15;131453;1253;107094;-82
2023/06/21 02:54:37;;;;;;;18.70;16.80;;;;;;;19.94;70.74;100124.15;131394;1252;107392;-81
2023/06/21 02:57:44;;;;;;;18.10;16.20;;;;;;;19.94;70.79;100121.73;131336;1256;107803;-81
2023/06/21 03:00:50;;;;;;;17.70;15.90;;;;;;;19.95;70.90;100123.10;131063;1258;107438;-81
2023/06/21 03:03:55;;;;;;;16.70;15.00;;;;;;;19.96;70.87;100127.80;131189;1256;107181;-81
2023/06/21 03:07:05;;;;;;;18.30;16.40;;;;;;;19.99;70.95;100125.57;131220;1254;107499;-82
2023/06/21 03:10:12;;;;;;;18.10;16.30;;;;;;;20.03;71.06;100126.89;130994;1256;108145;-82
2023/06/21 03:13:18;;;;;;;18.10;16.40;;;;;;;20.06;70.95;100124.61;131267;1256;107978;-82
2023/06/21 03:16:24;;;;;;;18.90;17.00;;;;;;;20.10;71.04;100120.58;130914;1257;107647;-83
2023/06/21 03:19:30;;;;;;;18.50;16.70;;;;;;;20.16;71.00;100122.27;130944;1257;107527;-82
2023/06/21 03:22:36;;;;;;;18.80;17.00;;;;;;;20.21;70.88;100118.67;131081;1256;107406;-82
2023/06/21 03:25:42;;;;;;;20.30;18.30;;;;;;;20.23;70.87;100124.91;130890;1253;107519;-83
2023/06/21 03:28:50;;;;;;;18.00;16.10;;;;;;;20.21;70.97;100127.67;131123;1257;106409;-82
2023/06/21 03:31:55;;;;;;;16.40;14.90;;;;;;;20.23;71.10;100137.38;131055;1265;107510;-83
2023/06/21 03:35:01;;;;;;;17.80;16.10;;;;;;;20.27;71.14;100139.73;130994;1256;108533;-82
2023/06/21 03:38:08;;;;;;;17.60;15.80;;;;;;;20.30;71.14;100140.70;130925;1259;107548;-82
2023/06/21 03:41:18;;;;;;;18.10;16.40;;;;;;;20.33;71.21;100145.10;131066;1256;107488;-82
2023/06/21 03:44:24;;;;;;;18.70;17.00;;;;;;;20.36;71.27;100142.86;130987;1256;107511;-82
2023/06/21 03:47:30;;;;;;;18.80;17.00;;;;;;;20.37;71.27;100145.23;131156;1254;107280;-83
2023/06/21 03:50:36;;;;;;;19.90;18.00;;;;;;;20.39;71.33;100146.80;131084;1259;106681;-82
2023/06/21 03:53:42;;;;;;;19.60;17.70;;;;;;;20.44;71.31;100150.36;130916;1256;106537;-82
2023/06/21 03:56:49;;;;;;;18.70;16.70;;;;;;;20.47;71.42;100149.66;131123;1254;107408;-82
2023/06/21 03:59:54;;;;;;;17.00;15.30;;;;;;;20.52;71.35;100151.70;130982;1254;107528;-82
2023/06/21 04:03:00;;;;;;;20.20;18.30;;;;;;;20.58;71.35;100150.29;130992;1259;107356;-82
2023/06/21 04:06:06;;;;;;;19.00;17.10;;;;;;;20.58;71.38;100147.30;130895;1257;107548;-81
2023/06/21 04:09:12;;;;;;;19.30;17.40;;;;;;;20.70;71.49;100154.17;131067;1253;107463;-81
2023/06/21 04:12:17;;;;;;;20.80;18.70;;;;;;;20.75;71.44;100150.44;130988;1256;107432;-81
2023/06/21 04:15:23;;;;;;;20.60;18.70;;;;;;;20.79;71.36;100155.39;130890;1259;107673;-81
2023/06/21 04:18:29;;;;;;;19.00;17.10;;;;;;;20.81;71.22;100152.23;130792;1257;106713;-81
2023/06/21 04:21:37;;;;;;;21.40;19.20;;;;;;;20.85;71.33;100149.27;131046;1256;107386;-82
2023/06/21 04:24:43;;;;;;;23.00;20.80;;;;;;;20.91;71.36;100146.96;130968;1258;107668;-81
2023/06/21 04:27:48;;;;;;;19.00;17.20;;;;;;;20.95;71.38;100144.28;130868;1251;107441;-81
2023/06/21 04:30:56;;;;;;;17.80;16.10;;;;;;;21.06;71.35;100141.04;131210;1254;107435;-82
2023/06/21 04:34:01;;;;;;;18.20;16.50;;;;;;;21.19;71.29;100143.86;131107;1261;107520;-81
2023/06/21 04:37:07;;;;;;;19.50;17.50;;;;;;;21.32;71.16;100136.38;131232;1256;107538;-81
2023/06/21 04:40:16;;;;;;;18.60;16.90;;;;;;;21.42;71.01;100133.13;131265;1267;107349;-82
2023/06/21 04:43:25;;;;;;;19.50;17.50;;;;;;;21.49;71.01;100136.29;131112;1256;108658;-81
2023/06/21 04:46:30;;;;;;;19.10;17.30;;;;;;;21.54;70.75;100135.09;131234;1254;107523;-81
2023/06/21 04:49:36;;;;;;;20.40;18.00;;;;;;;21.58;70.61;100138.81;131074;1256;108154;-81
2023/06/21 04:52:48;;;;;;;20.70;18.50;;;;;;;21.61;70.64;100138.56;130876;1254;107589;-81
2023/06/21 04:55:54;;;;;;;19.20;17.40;;;;;;;21.64;70.64;100140.11;131345;1257;107586;-81
2023/06/21 04:58:59;;;;;;;18.70;16.80;;;;;;;21.67;70.76;100139.11;131160;1256;107537;-81
2023/06/21 05:02:05;;;;;;;18.50;16.60;;;;;;;21.70;70.64;100142.70;131067;1260;107271;-81
2023/06/21 05:05:11;;;;;;;17.10;15.60;;;;;;;21.75;70.54;100142.97;131028;1255;107574;-81
2023/06/21 05:08:17;;;;;;;16.20;14.40;;;;;;;21.79;70.62;100139.95;131223;1254;107047;-81
2023/06/21 05:11:23;;;;;;;16.00;14.40;;;;;;;21.85;70.56;100140.11;131236;1251;107441;-82
2023/06/21 05:14:29;;;;;;;17.00;15.00;;;;;;;21.94;70.71;100142.46;131056;1256;106528;-81
2023/06/21 05:17:34;;;;;;;16.90;15.20;;;;;;;22.03;70.29;100141.77;131046;1256;106524;-81
2023/06/21 05:20:40;;;;;;;17.90;16.10;;;;;;;22.10;70.28;100142.94;131078;1256;107386;-81
2023/06/21 05:23:45;;;;;;;17.00;15.40;;;;;;;22.15;70.18;100150.17;130878;1256;107583;-82
2023/06/21 05:26:51;;;;;;;16.70;15.00;;;;;;;22.19;70.18;100154.77;130929;1256;105757;-81
2023/06/21 05:29:56;;;;;;;17.50;15.80;;;;;;;22.24;70.17;100154.94;130896;1256;107362;-81
2023/06/21 05:33:03;;;;;;;17.40;15.70;;;;;;;22.27;70.11;100152.65;130996;1259;107523;-82
2023/06/21 05:36:10;;;;;;;17.30;15.70;;;;;;;22.30;69.82;100156.16;131004;1256;107412;-81
2023/06/21 05:39:15;;;;;;;16.10;14.60;;;;;;;22.33;69.83;100152.44;131130;1255;107531;-82
2023/06/21 05:42:21;;;;;;;17.40;15.60;;;;;;;22.36;69.74;100153.95;131055;1256;107560;-82
2023/06/21 05:45:26;;;;;;;16.40;14.90;;;;;;;22.37;69.91;100154.69;131080;1251;107598;-81
2023/06/21 05:48:32;;;;;;;15.70;14.30;;;;;;;22.38;70.08;100158.26;130972;1255;107529;-81
2023/06/21 05:51:37;;;;;;;15.80;14.40;;;;;;;22.38;69.95;100158.30;131007;1256;107229;-81
2023/06/21 05:54:44;;;;;;;19.40;17.40;;;;;;;22.39;70.13;100164.47;131103;1256;107425;-82
2023/06/21 05:57:50;;;;;;;18.60;16.60;;;;;;;22.36;70.56;100173.27;131028;1254;109290;-81
2023/06/21 06:00:57;;;;;;;18.40;16.60;;;;;;;22.32;70.55;100175.55;131185;1255;107530;-82
2023/06/21 06:04:02;;;;;;;17.00;15.30;;;;;;;22.27;70.46;100182.77;131161;1256;107489;-82
2023/06/21 06:07:08;;;;;;;17.30;15.50;;;;;;;22.38;70.71;100179.89;131043;1256;107988;-82
2023/06/21 06:10:13;;;;;;;17.70;16.00;;;;;;;22.55;70.20;100179.23;131028;1251;107634;-82
2023/06/21 06:13:21;;;;;;;18.30;16.60;;;;;;;22.64;70.66;100178.09;131199;1256;107622;-82
2023/06/21 06:16:26;;;;;;;19.70;17.90;;;;;;;22.64;71.20;100176.13;131195;1256;106265;-82
2023/06/21 06:19:32;;;;;;;17.70;16.10;;;;;;;22.59;71.23;100180.20;131161;1257;107542;-82
2023/06/21 06:22:40;;;;;;;15.90;14.30;;;;;;;22.62;71.11;100179.45;131169;1264;107370;-84
2023/06/21 06:25:45;;;;;;;18.80;17.00;;;;;;;22.76;70.83;100169.73;130973;1255;107429;-83
2023/06/21 06:28:51;;;;;;;17.60;16.00;;;;;;;22.97;71.09;100167.65;131101;1264;107781;-82
2023/06/21 06:31:57;;;;;;;17.20;15.50;;;;;;;23.15;70.75;100164.88;131099;1256;107480;-82
2023/06/21 06:35:03;;;;;;;17.80;16.00;;;;;;;23.25;70.82;100165.60;130985;1264;107448;-82
2023/06/21 06:38:42;;;;;;;18.30;16.40;;;;;;;23.33;70.81;100168.55;130963;1256;107498;-82
2023/06/21 06:41:47;;;;;;;17.70;15.90;;;;;;;23.38;70.99;100171.91;130893;1266;107510;-82
2023/06/21 06:44:55;;;;;;;16.80;15.30;;;;;;;23.41;70.81;100175.18;130906;1258;107473;-82
2023/06/21 06:48:01;;;;;;;17.60;16.00;;;;;;;23.40;70.95;100176.73;130930;1256;107504;-82
2023/06/21 06:51:06;;;;;;;18.00;16.30;;;;;;;23.40;70.88;100176.19;130901;1256;107549;-82
2023/06/21 06:54:12;;;;;;;18.20;16.50;;;;;;;23.40;70.86;100175.15;130969;1253;107529;-82
2023/06/21 06:57:17;;;;;;;17.30;15.70;;;;;;;23.38;71.08;100181.11;131231;1256;107397;-82
2023/06/21 07:00:23;;;;;;;16.00;14.50;;;;;;;23.36;71.33;100182.31;131087;1272;108670;-82
2023/06/21 07:03:28;;;;;;;16.30;14.80;;;;;;;23.36;71.32;100177.54;131281;1256;107530;-83
2023/06/21 07:06:34;;;;;;;17.00;15.40;;;;;;;23.37;71.35;100173.09;131171;1252;107480;-83
2023/06/21 07:09:40;;;;;;;17.40;15.80;;;;;;;23.38;71.23;100169.25;131078;1257;106456;-82
2023/06/21 07:12:46;;;;;;;16.60;15.10;;;;;;;23.42;71.23;100166.98;131008;1256;107632;-82
2023/06/21 07:15:51;;;;;;;17.10;15.60;;;;;;;23.45;71.12;100162.38;131059;1256;107223;-81
2023/06/21 07:18:57;;;;;;;17.50;15.80;;;;;;;23.50;71.24;100157.53;131023;1256;108197;-82
2023/06/21 07:22:02;;;;;;;16.40;14.80;;;;;;;23.60;71.29;100152.27;131063;1264;107555;-82
2023/06/21 07:25:09;;;;;;;16.00;14.60;;;;;;;23.67;71.15;100146.90;131062;1256;106686;-82
2023/06/21 07:28:15;;;;;;;17.40;15.50;;;;;;;23.73;70.92;100146.03;131027;1264;106994;-82
2023/06/21 07:31:20;;;;;;;16.80;15.00;;;;;;;23.78;70.79;100146.48;131121;1261;107485;-81
2023/06/21 07:34:26;;;;;;;15.50;14.10;;;;;;;23.81;70.87;100148.95;131144;1256;107526;-81
2023/06/21 07:37:31;;;;;;;15.10;13.80;;;;;;;23.85;70.77;100146.35;131169;1256;107517;-81
2023/06/21 07:40:37;;;;;;;16.20;14.70;;;;;;;23.90;70.85;100144.98;131065;1265;107564;-82
2023/06/21 07:43:43;;;;;;;15.40;14.00;;;;;;;24.01;70.88;100143.81;131158;1256;106679;-82
2023/06/21 07:46:51;;;;;;;17.10;15.20;;;;;;;24.13;70.83;100141.36;131085;1255;107225;-81
2023/06/21 07:49:56;;;;;;;16.30;14.70;;;;;;;24.25;70.72;100136.11;131168;1265;107356;-81
2023/06/21 07:53:03;;;;;;;17.20;15.00;;;;;;;24.36;70.77;100136.08;131251;1257;107146;-82
2023/06/21 07:56:13;;;;;;;15.80;14.30;;;;;;;24.44;70.59;100133.33;131143;1264;107370;-82
2023/06/21 07:59:19;;;;;;;14.90;13.50;;;;;;;24.50;70.42;100132.16;131115;1255;107457;-82
2023/06/21 08:02:24;;;;;;;15.10;13.70;;;;;;;24.56;70.29;100136.30;131049;1258;107238;-82
2023/06/21 08:05:30;;;;;;;15.30;14.00;;;;;;;24.61;70.42;100132.48;131050;1253;107265;-81
2023/06/21 08:08:36;;;;;;;16.10;14.50;;;;;;;24.69;70.28;100130.19;131113;1264;106545;-82
2023/06/21 08:11:42;;;;;;;16.30;14.60;;;;;;;24.80;70.03;100129.44;130992;1251;107259;-81
2023/06/21 08:14:47;;;;;;;14.50;13.10;;;;;;;24.94;69.76;100134.70;131065;1257;107558;-82
2023/06/21 08:17:53;;;;;;;15.20;13.80;;;;;;;25.05;69.51;100130.27;131085;1257;107436;-82
2023/06/21 08:20:58;;;;;;;15.30;13.70;;;;;;;25.23;69.51;100129.56;131198;1264;107829;-81
2023/06/21 08:24:04;;;;;;;14.20;13.00;;;;;;;25.42;69.28;100133.86;131128;1251;107378;-82
2023/06/21 08:27:10;;;;;;;14.60;13.30;;;;;;;25.61;69.07;100138.88;130973;1261;107259;-81
2023/06/21 08:30:16;;;;;;;15.60;13.80;;;;;;;25.80;69.02;100137.39;131036;1264;107409;-81
2023/06/21 08:33:22;;;;;;;15.60;14.20;;;;;;;26.01;68.58;100137.42;130985;1257;107526;-82
2023/06/21 08:36:27;;;;;;;14.70;13.30;;;;;;;26.24;68.41;100139.16;131025;1257;107481;-82
2023/06/21 08:39:33;;;;;;;13.90;12.70;;;;;;;26.48;68.19;100134.55;130978;1257;107603;-81
2023/06/21 08:42:38;;;;;;;13.60;12.40;;;;;;;26.73;67.68;100136.18;131045;1258;107550;-82
2023/06/21 08:45:44;;;;;;;13.40;12.10;;;;;;;26.95;67.15;100136.06;131039;1264;107857;-81
2023/06/21 08:48:57;;;;;;;13.40;12.10;;;;;;;27.15;66.20;100130.69;130993;1256;106653;-82
2023/06/21 08:52:08;;;;;;;13.10;12.00;;;;;;;27.36;65.99;100126.59;130981;1257;107530;-82
2023/06/21 08:55:14;;;;;;;;;;;;;;;27.56;65.51;100126.83;131088;1261;107530;-82
2023/06/21 08:58:25;;;;;;;12.60;11.40;;;;;;;27.74;64.96;100123.42;131013;1265;107407;-82
2023/06/21 09:01:38;;;;;;;12.20;11.20;;;;;;;27.93;64.42;100121.57;131002;1257;107468;-82
2023/06/21 09:04:46;;;;;;;12.60;11.50;;;;;;;28.14;64.03;100127.25;130998;1257;107468;-82
2023/06/21 09:07:53;;;;;;;12.30;11.20;;;;;;;28.37;63.56;100126.81;131114;1252;107558;-82
2023/06/21 09:10:59;;;;;;;11.80;10.80;;;;;;;28.56;62.43;100121.12;131110;1264;107566;-82
2023/06/21 09:14:05;;;;;;;11.70;10.60;;;;;;;28.76;62.52;100121.65;130996;1257;107440;-83
2023/06/21 09:17:12;;;;;;;10.90;9.90;;;;;;;28.91;61.98;100117.82;131031;1257;107521;-84
2023/06/21 09:20:18;;;;;;;11.50;10.50;;;;;;;29.01;61.79;100116.38;131055;1258;107275;-83
2023/06/21 09:23:24;;;;;;;11.20;10.20;;;;;;;29.04;61.02;100116.14;131061;1257;107178;-83
2023/06/21 09:26:29;;;;;;;12.30;11.20;;;;;;;29.00;60.39;100116.10;131127;1256;107552;-83
2023/06/21 09:29:36;;;;;;;11.80;10.80;;;;;;;28.96;59.71;100117.80;131238;1251;108141;-82
2023/06/21 09:32:42;;;;;;;12.20;11.00;;;;;;;28.97;59.73;100120.34;131058;1251;107351;-83
2023/06/21 09:35:48;;;;;;;11.50;10.50;;;;;;;28.98;59.04;100125.11;130980;1266;107236;-82
2023/06/21 09:39:06;;;;;;;11.10;10.10;;;;;;;28.95;58.97;100123.58;131153;1256;107148;-82
2023/06/21 09:42:13;;;;;;;10.70;9.70;;;;;;;28.95;58.69;100121.94;131062;1256;107729;-83
2023/06/21 09:45:21;;;;;;;11.00;10.10;;;;;;;28.89;58.41;100122.17;131046;1257;107423;-81
2023/06/21 09:48:27;;;;;;;10.70;9.80;;;;;;;28.86;57.80;100124.37;131058;1251;108100;-82
2023/06/21 09:51:32;;;;;;;11.00;10.00;;;;;;;28.86;57.79;100124.48;130978;1253;107553;-82
2023/06/21 09:54:44;;;;;;;10.90;9.90;;;;;;;28.95;57.44;100126.55;130982;1254;107139;-82
2023/06/21 09:57:54;;;;;;;11.00;10.00;;;;;;;29.09;57.19;100127.41;131032;1256;107572;-82
2023/06/21 10:01:00;;;;;;;11.00;10.00;;;;;;;29.27;56.74;100126.41;131035;1257;107044;-83
2023/06/21 10:04:11;;;;;;;11.20;9.40;;;;;;;29.41;56.71;100127.30;131270;1256;107494;-82
2023/06/21 10:07:22;;;;;;;10.90;9.90;;;;;;;29.50;56.41;100130.50;131221;1256;107509;-82
2023/06/21 10:10:28;;;;;;;11.20;10.00;;;;;;;29.52;56.32;100131.52;131253;1257;107518;-82
2023/06/21 10:13:37;;;;;;;11.20;10.30;;;;;;;29.53;56.24;100132.25;131186;1251;107286;-82
2023/06/21 10:16:43;;;;;;;11.20;10.30;;;;;;;29.55;56.12;100129.54;131129;1255;107562;-82
2023/06/21 10:19:49;;;;;;;11.10;10.00;;;;;;;29.61;55.69;100128.26;131072;1251;109114;-82
2023/06/21 10:22:57;;;;;;;10.30;9.50;;;;;;;29.74;55.35;100127.09;131136;1267;107532;-82
2023/06/21 10:26:05;;;;;;;10.70;9.70;;;;;;;29.86;54.89;100127.64;131216;1252;107505;-82
2023/06/21 10:29:13;;;;;;;9.90;9.10;;;;;;;29.96;54.58;100124.82;131152;1257;107602;-81
2023/06/21 10:32:19;;;;;;;10.80;9.80;;;;;;;30.03;54.19;100121.58;131257;1251;107543;-82
2023/06/21 10:35:30;;;;;;;9.90;9.10;;;;;;;30.10;54.19;100118.49;131220;1254;107208;-81
2023/06/21 10:38:38;;;;;;;;;;;;;;;30.14;54.09;100115.61;131258;1251;109297;-82
2023/06/21 10:41:45;;;;;;;10.40;9.30;;;;;;;30.13;53.89;100112.20;131103;1257;107499;-81
2023/06/21 10:44:52;;;;;;;10.30;9.30;;;;;;;30.15;53.47;100106.24;131132;1251;107860;-82
2023/06/21 10:47:58;;;;;;;9.80;9.00;;;;;;;30.14;53.34;100110.20;131107;1258;108587;-81
2023/06/21 10:51:04;;;;;;;9.90;9.10;;;;;;;30.12;53.10;100111.82;131131;1258;108837;-82
2023/06/21 10:54:10;;;;;;;9.90;9.10;;;;;;;30.09;53.14;100112.07;131146;1256;107576;-82
2023/06/21 10:57:17;;;;;;;9.10;8.40;;;;;;;30.06;53.25;100114.80;131146;1254;108099;-82
2023/06/21 11:00:24;;;;;;;9.40;8.50;;;;;;;30.00;52.81;100115.71;131118;1251;106081;-81
2023/06/21 11:03:30;;;;;;;9.40;8.70;;;;;;;29.96;53.01;100118.21;131205;1257;108764;-81
2023/06/21 11:06:38;;;;;;;9.70;8.80;;;;;;;29.92;52.96;100124.23;131061;1257;107423;-82
2023/06/21 11:09:43;;;;;;;9.60;8.80;;;;;;;29.89;52.80;100127.61;131089;1256;107733;-82
2023/06/21 11:12:54;;;;;;;8.90;8.10;;;;;;;29.86;52.86;100127.95;130904;1256;107510;-82
2023/06/21 11:16:12;;;;;;;9.30;8.50;;;;;;;29.84;52.89;100123.41;131092;1252;107585;-81
2023/06/21 11:19:18;;;;;;;9.00;8.30;;;;;;;29.82;53.02;100123.97;131021;1257;107443;-81
2023/06/21 11:22:25;;;;;;;9.40;8.60;;;;;;;29.79;52.80;100120.15;130982;1257;107362;-83
2023/06/21 11:25:31;;;;;;;9.70;8.70;;;;;;;29.77;53.13;100120.70;131045;1257;107600;-81
2023/06/21 11:28:37;;;;;;;10.10;8.80;;;;;;;29.77;53.28;100116.64;131089;1256;107828;-82
2023/06/21 11:31:42;;;;;;;9.30;8.50;;;;;;;29.76;53.28;100118.23;131072;1256;107516;-82
2023/06/21 11:34:56;;;;;;;9.20;8.40;;;;;;;29.75;53.23;100120.27;131123;1252;107986;-82
2023/06/21 11:38:02;;;;;;;9.30;8.50;;;;;;;29.74;53.20;100116.60;131163;1254;107259;-82
2023/06/21 11:41:56;;;;;;;9.80;8.90;;;;;;;29.73;52.96;100118.02;131183;1251;107336;-82
2023/06/21 11:45:18;;;;;;;8.90;8.20;;;;;;;29.74;52.87;100114.77;131100;1257;106969;-82
2023/06/21 11:48:27;;;;;;;9.70;8.40;;;;;;;29.73;52.78;100111.36;131207;1252;107510;-81
2023/06/21 11:51:34;;;;;;;9.80;8.50;;;;;;;29.74;52.90;100113.56;131175;1256;107488;-81
2023/06/21 11:54:39;;;;;;;9.10;8.30;;;;;;;29.77;53.09;100112.67;131215;1257;107508;-82
2023/06/21 11:57:47;;;;;;;9.40;8.60;;;;;;;29.77;52.78;100113.45;131182;1263;107549;-82
2023/06/21 12:00:53;;;;;;;9.40;8.50;;;;;;;29.73;52.69;100113.73;131225;1251;107185;-81
2023/06/21 12:04:02;;;;;;;9.70;8.70;;;;;;;29.70;52.50;100108.27;131156;1251;107521;-81
2023/06/21 12:07:08;;;;;;;9.00;8.20;;;;;;;29.68;52.57;100108.46;131066;1251;107907;-82
2023/06/21 12:10:16;;;;;;;9.70;8.60;;;;;;;29.65;52.38;100107.17;131153;1256;107350;-82
2023/06/21 12:13:23;;;;;;;9.40;8.60;;;;;;;29.65;52.68;100103.58;131187;1255;107593;-82
2023/06/21 12:16:30;;;;;;;9.20;8.50;;;;;;;29.64;52.48;100103.77;131216;1267;107099;-81
2023/06/21 12:19:36;;;;;;;9.00;8.20;;;;;;;29.66;52.52;100106.33;131106;1257;108593;-82
2023/06/21 12:22:41;;;;;;;9.80;8.90;;;;;;;29.67;52.16;100106.87;130831;1256;106662;-84
2023/06/21 12:25:49;;;;;;;9.00;8.20;;;;;;;29.67;52.10;100104.62;130960;1257;107521;-84
2023/06/21 12:28:55;;;;;;;9.20;8.30;;;;;;;29.69;52.14;100103.05;130843;1256;107112;-82
2023/06/21 12:32:04;;;;;;;9.50;8.50;;;;;;;29.70;52.21;100101.90;131057;1251;105645;-82
2023/06/21 12:35:13;;;;;;;9.30;8.50;;;;;;;29.70;51.88;100101.80;131007;1256;107604;-82
2023/06/21 12:38:20;;;;;;;9.60;8.80;;;;;;;29.68;51.73;100099.77;131025;1264;107505;-83
2023/06/21 12:41:28;;;;;;;9.50;8.60;;;;;;;29.65;51.76;100102.20;131112;1258;107445;-82
2023/06/21 12:44:34;;;;;;;9.60;8.80;;;;;;;29.62;51.88;100100.98;131146;1255;107555;-82
2023/06/21 12:47:41;;;;;;;9.40;8.50;;;;;;;29.56;51.76;100105.17;131058;1256;107846;-82
2023/06/21 12:50:48;;;;;;;9.40;8.70;;;;;;;29.53;51.96;100103.11;131134;1256;107508;-83
2023/06/21 12:53:59;;;;;;;9.70;8.90;;;;;;;29.50;51.83;100110.33;131049;1256;108123;-84
2023/06/21 12:57:05;;;;;;;9.30;8.60;;;;;;;29.36;51.65;100112.75;131075;1256;107536;-82
2023/06/21 13:00:13;;;;;;;9.70;8.90;;;;;;;29.21;51.76;100116.83;131072;1256;107479;-81
2023/06/21 13:03:20;;;;;;;10.00;9.10;;;;;;;29.01;51.75;100119.13;131071;1251;107488;-82
2023/06/21 13:06:27;;;;;;;10.00;9.10;;;;;;;28.83;51.95;100122.84;131216;1250;107504;-83
2023/06/21 13:09:34;;;;;;;9.90;9.10;;;;;;;28.67;51.85;100127.98;131076;1256;107424;-81
2023/06/21 13:12:40;;;;;;;10.30;9.40;;;;;;;28.54;51.91;100128.21;131058;1251;107410;-82
2023/06/21 13:15:45;;;;;;;11.00;9.90;;;;;;;28.44;51.75;100132.79;131027;1257;107010;-82
2023/06/21 13:18:52;;;;;;;10.60;9.70;;;;;;;28.36;51.76;100136.98;131053;1256;107534;-82
2023/06/21 13:21:58;;;;;;;11.00;9.90;;;;;;;28.30;52.20;100140.04;131066;1264;107518;-81
2023/06/21 13:25:04;;;;;;;11.60;10.40;;;;;;;28.27;52.41;100151.61;131170;1255;107962;-81
2023/06/21 13:28:10;;;;;;;11.80;10.80;;;;;;;28.26;52.68;100157.77;131154;1255;106701;-82
2023/06/21 13:31:17;;;;;;;12.90;11.60;;;;;;;28.22;53.19;100160.08;131063;1256;107575;-82
2023/06/21 13:34:22;;;;;;;12.40;11.30;;;;;;;28.15;53.63;100164.61;131176;1256;107360;-83
2023/06/21 13:37:28;;;;;;;12.30;11.20;;;;;;;28.06;53.99;100173.71;131005;1256;107636;-82
2023/06/21 13:40:34;;;;;;;13.10;11.60;;;;;;;28.00;54.66;100181.44;131084;1256;107269;-82
2023/06/21 13:43:39;;;;;;;11.60;10.60;;;;;;;27.85;55.17;100187.14;131056;1256;107534;-82
2023/06/21 13:46:45;;;;;;;11.50;10.50;;;;;;;27.63;55.60;100177.45;131066;1251;107505;-82
2023/06/21 13:49:50;;;;;;;11.70;10.60;;;;;;;27.45;56.31;100170.25;131073;1253;107306;-82
2023/06/21 13:52:56;;;;;;;12.10;10.10;;;;;;;27.30;56.91;100168.04;130963;1256;107448;-82
2023/06/21 13:56:01;;;;;;;12.10;11.00;;;;;;;27.18;56.96;100162.03;131160;1251;107534;-82